sensor_id;sensor_type;location;lat;lon;timestamp;P1;durP1;ratioP1;P2;durP2;ratioP2
35745;SDS011;21870;42.812;74.628;2023-03-04T00:01:47;27.60;;;22.73;;
35745;SDS011;21870;42.812;74.628;2023-03-04T00:04:14;22.80;;;19.88;;
35745;SDS011;21870;42.812;74.628;2023-03-04T00:06:41;20.48;;;18.13;;
35745;SDS011;21870;42.812;74.628;2023-03-04T00:09:07;22.92;;;17.95;;
35745;SDS011;21870;42.812;74.628;2023-03-04T00:11:33;20.35;;;16.90;;
35745;SDS011;21870;42.812;74.628;2023-03-04T00:13:59;17.23;;;15.38;;
35745;SDS011;21870;42.812;74.628;2023-03-04T00:16:25;19.42;;;15.27;;
35745;SDS011;21870;42.812;74.628;2023-03-04T00:18:55;17.35;;;13.60;;
35745;SDS011;21870;42.812;74.628;2023-03-04T00:21:22;16.00;;;14.25;;
35745;SDS011;21870;42.812;74.628;2023-03-04T00:23:48;16.80;;;15.05;;
35745;SDS011;21870;42.812;74.628;2023-03-04T00:26:15;15.10;;;13.50;;
35745;SDS011;21870;42.812;74.628;2023-03-04T00:28:42;17.77;;;15.50;;
35745;SDS011;21870;42.812;74.628;2023-03-04T00:31:08;20.23;;;15.30;;
35745;SDS011;21870;42.812;74.628;2023-03-04T00:33:35;19.30;;;15.90;;
35745;SDS011;21870;42.812;74.628;2023-03-04T00:36:01;16.33;;;13.07;;
35745;SDS011;21870;42.812;74.628;2023-03-04T00:38:28;14.95;;;13.43;;
35745;SDS011;21870;42.812;74.628;2023-03-04T00:40:54;18.15;;;13.57;;
35745;SDS011;21870;42.812;74.628;2023-03-04T00:43:21;15.73;;;14.13;;
35745;SDS011;21870;42.812;74.628;2023-03-04T00:45:48;24.30;;;14.63;;
35745;SDS011;21870;42.812;74.628;2023-03-04T00:48:14;17.85;;;15.25;;
35745;SDS011;21870;42.812;74.628;2023-03-04T00:50:41;20.17;;;16.08;;
35745;SDS011;21870;42.812;74.628;2023-03-04T00:53:08;25.85;;;22.30;;
35745;SDS011;21870;42.812;74.628;2023-03-04T00:55:35;23.15;;;20.85;;
35745;SDS011;21870;42.812;74.628;2023-03-04T00:58:01;22.20;;;18.58;;
35745;SDS011;21870;42.812;74.628;2023-03-04T01:00:27;22.65;;;19.40;;
35745;SDS011;21870;42.812;74.628;2023-03-04T01:02:54;32.38;;;18.60;;
35745;SDS011;21870;42.812;74.628;2023-03-04T01:05:20;19.83;;;16.42;;
35745;SDS011;21870;42.812;74.628;2023-03-04T01:07:46;18.73;;;16.73;;
35745;SDS011;21870;42.812;74.628;2023-03-04T01:10:13;24.20;;;17.30;;
35745;SDS011;21870;42.812;74.628;2023-03-04T01:12:40;23.00;;;18.58;;
35745;SDS011;21870;42.812;74.628;2023-03-04T01:15:08;22.58;;;17.48;;
35745;SDS011;21870;42.812;74.628;2023-03-04T01:17:35;22.33;;;18.30;;
35745;SDS011;21870;42.812;74.628;2023-03-04T01:20:01;19.85;;;16.60;;
35745;SDS011;21870;42.812;74.628;2023-03-04T01:22:28;20.88;;;18.50;;
35745;SDS011;21870;42.812;74.628;2023-03-04T01:24:54;20.73;;;16.98;;
35745;SDS011;21870;42.812;74.628;2023-03-04T01:27:20;20.48;;;16.38;;
35745;SDS011;21870;42.812;74.628;2023-03-04T01:29:46;18.17;;;16.17;;
35745;SDS011;21870;42.812;74.628;2023-03-04T01:32:12;20.00;;;15.65;;
35745;SDS011;21870;42.812;74.628;2023-03-04T01:34:38;17.25;;;15.48;;
35745;SDS011;21870;42.812;74.628;2023-03-04T01:37:05;20.35;;;15.80;;
35745;SDS011;21870;42.812;74.628;2023-03-04T01:39:31;17.88;;;14.25;;
35745;SDS011;21870;42.812;74.628;2023-03-04T01:41:57;18.48;;;15.27;;
35745;SDS011;21870;42.812;74.628;2023-03-04T01:44:23;18.35;;;15.25;;
35745;SDS011;21870;42.812;74.628;2023-03-04T01:46:50;16.25;;;14.60;;
35745;SDS011;21870;42.812;74.628;2023-03-04T01:49:18;20.65;;;14.52;;
35745;SDS011;21870;42.812;74.628;2023-03-04T01:51:54;22.00;;;14.80;;
35745;SDS011;21870;42.812;74.628;2023-03-04T01:54:21;18.15;;;16.08;;
35745;SDS011;21870;42.812;74.628;2023-03-04T01:56:48;18.25;;;16.15;;
35745;SDS011;21870;42.812;74.628;2023-03-04T01:59:25;19.80;;;15.82;;
35745;SDS011;21870;42.812;74.628;2023-03-04T02:01:56;19.58;;;15.77;;
35745;SDS011;21870;42.812;74.628;2023-03-04T02:04:25;17.33;;;14.77;;
35745;SDS011;21870;42.812;74.628;2023-03-04T02:06:53;19.85;;;14.93;;
35745;SDS011;21870;42.812;74.628;2023-03-04T02:09:20;20.48;;;15.25;;
35745;SDS011;21870;42.812;74.628;2023-03-04T02:11:47;22.98;;;16.75;;
35745;SDS011;21870;42.812;74.628;2023-03-04T02:14:17;24.55;;;17.20;;
35745;SDS011;21870;42.812;74.628;2023-03-04T02:16:45;17.50;;;13.75;;
35745;SDS011;21870;42.812;74.628;2023-03-04T02:19:18;19.52;;;15.15;;
35745;SDS011;21870;42.812;74.628;2023-03-04T02:22:00;16.00;;;13.23;;
35745;SDS011;21870;42.812;74.628;2023-03-04T02:27:24;15.93;;;12.48;;
35745;SDS011;21870;42.812;74.628;2023-03-04T02:29:50;13.32;;;11.82;;
35745;SDS011;21870;42.812;74.628;2023-03-04T02:32:16;13.00;;;10.43;;
35745;SDS011;21870;42.812;74.628;2023-03-04T02:34:46;19.30;;;11.85;;
35745;SDS011;21870;42.812;74.628;2023-03-04T02:37:14;15.45;;;11.20;;
35745;SDS011;21870;42.812;74.628;2023-03-04T02:39:42;14.43;;;10.90;;
35745;SDS011;21870;42.812;74.628;2023-03-04T02:42:10;15.32;;;11.38;;
35745;SDS011;21870;42.812;74.628;2023-03-04T02:44:37;15.50;;;12.77;;
35745;SDS011;21870;42.812;74.628;2023-03-04T02:47:07;14.93;;;10.38;;
35745;SDS011;21870;42.812;74.628;2023-03-04T02:49:35;15.05;;;12.93;;
35745;SDS011;21870;42.812;74.628;2023-03-04T02:52:04;15.98;;;11.85;;
35745;SDS011;21870;42.812;74.628;2023-03-04T02:54:34;22.10;;;13.45;;
35745;SDS011;21870;42.812;74.628;2023-03-04T02:57:04;23.70;;;14.65;;
35745;SDS011;21870;42.812;74.628;2023-03-04T02:59:32;35.40;;;20.73;;
35745;SDS011;21870;42.812;74.628;2023-03-04T03:01:59;29.48;;;19.80;;
35745;SDS011;21870;42.812;74.628;2023-03-04T03:04:28;25.77;;;19.23;;
35745;SDS011;21870;42.812;74.628;2023-03-04T03:06:54;20.77;;;18.58;;
35745;SDS011;21870;42.812;74.628;2023-03-04T03:09:20;24.65;;;20.98;;
35745;SDS011;21870;42.812;74.628;2023-03-04T03:11:49;23.33;;;18.33;;
35745;SDS011;21870;42.812;74.628;2023-03-04T03:14:16;23.38;;;20.95;;
35745;SDS011;21870;42.812;74.628;2023-03-04T03:16:42;24.73;;;19.10;;
35745;SDS011;21870;42.812;74.628;2023-03-04T03:19:08;27.88;;;21.50;;
35745;SDS011;21870;42.812;74.628;2023-03-04T03:21:34;29.48;;;21.55;;
35745;SDS011;21870;42.812;74.628;2023-03-04T03:24:00;19.30;;;15.70;;
35745;SDS011;21870;42.812;74.628;2023-03-04T03:26:26;17.17;;;14.45;;
35745;SDS011;21870;42.812;74.628;2023-03-04T03:28:52;14.30;;;11.68;;
35745;SDS011;21870;42.812;74.628;2023-03-04T03:31:18;15.32;;;10.73;;
35745;SDS011;21870;42.812;74.628;2023-03-04T03:33:44;13.48;;;10.38;;
35745;SDS011;21870;42.812;74.628;2023-03-04T03:36:11;17.15;;;10.88;;
35745;SDS011;21870;42.812;74.628;2023-03-04T03:38:37;15.65;;;10.15;;
35745;SDS011;21870;42.812;74.628;2023-03-04T03:41:03;17.77;;;11.48;;
35745;SDS011;21870;42.812;74.628;2023-03-04T03:43:29;17.52;;;10.43;;
35745;SDS011;21870;42.812;74.628;2023-03-04T03:45:55;19.27;;;10.70;;
35745;SDS011;21870;42.812;74.628;2023-03-04T03:48:22;17.67;;;11.02;;
35745;SDS011;21870;42.812;74.628;2023-03-04T03:50:48;22.60;;;11.35;;
35745;SDS011;21870;42.812;74.628;2023-03-04T03:53:14;22.95;;;12.10;;
35745;SDS011;21870;42.812;74.628;2023-03-04T03:55:40;35.38;;;14.00;;
35745;SDS011;21870;42.812;74.628;2023-03-04T03:58:06;18.67;;;11.77;;
35745;SDS011;21870;42.812;74.628;2023-03-04T04:00:32;19.88;;;14.95;;
35745;SDS011;21870;42.812;74.628;2023-03-04T04:02:59;18.52;;;12.73;;
35745;SDS011;21870;42.812;74.628;2023-03-04T04:05:26;22.50;;;12.75;;
35745;SDS011;21870;42.812;74.628;2023-03-04T04:07:52;22.83;;;12.85;;
35745;SDS011;21870;42.812;74.628;2023-03-04T04:10:18;22.75;;;12.35;;
35745;SDS011;21870;42.812;74.628;2023-03-04T04:12:44;50.53;;;35.92;;
35745;SDS011;21870;42.812;74.628;2023-03-04T04:15:11;59.15;;;42.75;;
35745;SDS011;21870;42.812;74.628;2023-03-04T04:17:37;45.97;;;37.88;;
35745;SDS011;21870;42.812;74.628;2023-03-04T04:20:04;54.22;;;40.30;;
35745;SDS011;21870;42.812;74.628;2023-03-04T04:22:31;49.80;;;40.40;;
35745;SDS011;21870;42.812;74.628;2023-03-04T04:24:58;57.83;;;40.58;;
35745;SDS011;21870;42.812;74.628;2023-03-04T04:27:24;56.97;;;40.70;;
35745;SDS011;21870;42.812;74.628;2023-03-04T04:29:50;51.33;;;41.00;;
35745;SDS011;21870;42.812;74.628;2023-03-04T04:32:16;54.67;;;37.97;;
35745;SDS011;21870;42.812;74.628;2023-03-04T04:34:42;52.25;;;37.47;;
35745;SDS011;21870;42.812;74.628;2023-03-04T04:37:08;56.50;;;38.08;;
35745;SDS011;21870;42.812;74.628;2023-03-04T04:39:34;49.75;;;39.80;;
35745;SDS011;21870;42.812;74.628;2023-03-04T04:42:00;54.20;;;40.92;;
35745;SDS011;21870;42.812;74.628;2023-03-04T04:44:26;57.70;;;47.65;;
35745;SDS011;21870;42.812;74.628;2023-03-04T04:46:52;53.15;;;42.88;;
35745;SDS011;21870;42.812;74.628;2023-03-04T04:49:18;65.28;;;41.80;;
35745;SDS011;21870;42.812;74.628;2023-03-04T04:51:44;53.25;;;40.15;;
35745;SDS011;21870;42.812;74.628;2023-03-04T04:54:12;51.28;;;37.90;;
35745;SDS011;21870;42.812;74.628;2023-03-04T04:56:39;55.67;;;40.90;;
35745;SDS011;21870;42.812;74.628;2023-03-04T04:59:05;56.10;;;40.58;;
35745;SDS011;21870;42.812;74.628;2023-03-04T05:01:34;52.97;;;39.58;;
35745;SDS011;21870;42.812;74.628;2023-03-04T05:04:00;51.05;;;38.30;;
35745;SDS011;21870;42.812;74.628;2023-03-04T05:06:26;55.47;;;38.42;;
35745;SDS011;21870;42.812;74.628;2023-03-04T05:08:52;47.47;;;38.78;;
35745;SDS011;21870;42.812;74.628;2023-03-04T05:11:18;57.65;;;39.78;;
35745;SDS011;21870;42.812;74.628;2023-03-04T05:13:46;60.97;;;40.17;;
35745;SDS011;21870;42.812;74.628;2023-03-04T05:16:13;55.35;;;43.60;;
35745;SDS011;21870;42.812;74.628;2023-03-04T05:18:40;50.85;;;43.70;;
35745;SDS011;21870;42.812;74.628;2023-03-04T05:21:06;73.97;;;44.90;;
35745;SDS011;21870;42.812;74.628;2023-03-04T05:23:34;56.90;;;46.40;;
35745;SDS011;21870;42.812;74.628;2023-03-04T05:26:02;68.35;;;45.20;;
35745;SDS011;21870;42.812;74.628;2023-03-04T05:28:30;57.17;;;42.08;;
35745;SDS011;21870;42.812;74.628;2023-03-04T05:30:56;54.95;;;41.45;;
35745;SDS011;21870;42.812;74.628;2023-03-04T05:33:22;51.55;;;41.53;;
35745;SDS011;21870;42.812;74.628;2023-03-04T05:35:48;59.30;;;41.60;;
35745;SDS011;21870;42.812;74.628;2023-03-04T05:38:15;52.03;;;40.13;;
35745;SDS011;21870;42.812;74.628;2023-03-04T05:40:43;52.22;;;41.28;;
35745;SDS011;21870;42.812;74.628;2023-03-04T05:43:11;49.70;;;44.25;;
35745;SDS011;21870;42.812;74.628;2023-03-04T05:45:37;61.90;;;48.47;;
35745;SDS011;21870;42.812;74.628;2023-03-04T05:48:04;60.65;;;46.42;;
35745;SDS011;21870;42.812;74.628;2023-03-04T05:50:31;58.25;;;47.75;;
35745;SDS011;21870;42.812;74.628;2023-03-04T05:52:57;54.30;;;42.92;;
35745;SDS011;21870;42.812;74.628;2023-03-04T05:55:24;65.15;;;46.08;;
35745;SDS011;21870;42.812;74.628;2023-03-04T05:57:51;54.33;;;43.50;;
35745;SDS011;21870;42.812;74.628;2023-03-04T06:00:18;60.40;;;46.15;;
35745;SDS011;21870;42.812;74.628;2023-03-04T06:02:44;48.42;;;42.63;;
35745;SDS011;21870;42.812;74.628;2023-03-04T06:05:11;51.75;;;43.15;;
35745;SDS011;21870;42.812;74.628;2023-03-04T06:07:38;50.65;;;40.58;;
35745;SDS011;21870;42.812;74.628;2023-03-04T06:10:04;52.42;;;40.63;;
35745;SDS011;21870;42.812;74.628;2023-03-04T06:12:31;53.15;;;40.22;;
35745;SDS011;21870;42.812;74.628;2023-03-04T06:14:58;51.33;;;38.80;;
35745;SDS011;21870;42.812;74.628;2023-03-04T06:17:24;51.53;;;40.60;;
35745;SDS011;21870;42.812;74.628;2023-03-04T06:19:50;45.25;;;38.53;;
35745;SDS011;21870;42.812;74.628;2023-03-04T06:22:16;48.47;;;39.13;;
35745;SDS011;21870;42.812;74.628;2023-03-04T06:24:42;50.03;;;37.75;;
35745;SDS011;21870;42.812;74.628;2023-03-04T06:27:08;47.60;;;38.33;;
35745;SDS011;21870;42.812;74.628;2023-03-04T06:29:34;46.97;;;37.72;;
35745;SDS011;21870;42.812;74.628;2023-03-04T06:32:00;43.30;;;36.50;;
35745;SDS011;21870;42.812;74.628;2023-03-04T06:34:27;48.95;;;37.63;;
35745;SDS011;21870;42.812;74.628;2023-03-04T06:36:54;45.28;;;36.80;;
35745;SDS011;21870;42.812;74.628;2023-03-04T06:39:20;44.45;;;37.53;;
35745;SDS011;21870;42.812;74.628;2023-03-04T06:41:46;45.95;;;36.53;;
35745;SDS011;21870;42.812;74.628;2023-03-04T06:44:12;41.28;;;34.83;;
35745;SDS011;21870;42.812;74.628;2023-03-04T06:46:38;39.70;;;33.85;;
35745;SDS011;21870;42.812;74.628;2023-03-04T06:49:04;39.30;;;33.92;;
35745;SDS011;21870;42.812;74.628;2023-03-04T06:51:30;50.50;;;34.15;;
35745;SDS011;21870;42.812;74.628;2023-03-04T06:53:56;45.40;;;35.97;;
35745;SDS011;21870;42.812;74.628;2023-03-04T06:56:22;39.20;;;34.03;;
35745;SDS011;21870;42.812;74.628;2023-03-04T06:58:48;46.80;;;37.20;;
35745;SDS011;21870;42.812;74.628;2023-03-04T07:01:16;42.50;;;35.47;;
35745;SDS011;21870;42.812;74.628;2023-03-04T07:03:47;40.22;;;35.30;;
35745;SDS011;21870;42.812;74.628;2023-03-04T07:06:15;38.90;;;33.28;;
35745;SDS011;21870;42.812;74.628;2023-03-04T07:08:43;45.47;;;35.78;;
35745;SDS011;21870;42.812;74.628;2023-03-04T07:11:10;37.35;;;33.20;;
35745;SDS011;21870;42.812;74.628;2023-03-04T07:13:36;41.53;;;33.72;;
35745;SDS011;21870;42.812;74.628;2023-03-04T07:16:03;44.92;;;32.67;;
35745;SDS011;21870;42.812;74.628;2023-03-04T07:18:30;46.17;;;34.92;;
35745;SDS011;21870;42.812;74.628;2023-03-04T07:20:56;42.17;;;33.58;;
35745;SDS011;21870;42.812;74.628;2023-03-04T07:23:23;41.63;;;33.03;;
35745;SDS011;21870;42.812;74.628;2023-03-04T07:25:49;53.97;;;35.80;;
35745;SDS011;21870;42.812;74.628;2023-03-04T07:28:16;42.38;;;33.05;;
35745;SDS011;21870;42.812;74.628;2023-03-04T07:30:42;42.28;;;33.15;;
35745;SDS011;21870;42.812;74.628;2023-03-04T07:33:09;41.50;;;34.63;;
35745;SDS011;21870;42.812;74.628;2023-03-04T07:35:35;42.00;;;33.13;;
35745;SDS011;21870;42.812;74.628;2023-03-04T07:38:01;42.58;;;33.58;;
35745;SDS011;21870;42.812;74.628;2023-03-04T07:40:27;45.00;;;33.90;;
35745;SDS011;21870;42.812;74.628;2023-03-04T07:42:54;42.72;;;36.63;;
35745;SDS011;21870;42.812;74.628;2023-03-04T07:45:21;43.95;;;35.75;;
35745;SDS011;21870;42.812;74.628;2023-03-04T07:47:49;42.15;;;34.38;;
35745;SDS011;21870;42.812;74.628;2023-03-04T07:50:15;48.95;;;32.65;;
35745;SDS011;21870;42.812;74.628;2023-03-04T07:52:43;54.60;;;32.40;;
35745;SDS011;21870;42.812;74.628;2023-03-04T07:55:11;37.33;;;29.55;;
35745;SDS011;21870;42.812;74.628;2023-03-04T07:57:40;37.42;;;32.20;;
35745;SDS011;21870;42.812;74.628;2023-03-04T08:00:08;33.72;;;30.17;;
35745;SDS011;21870;42.812;74.628;2023-03-04T08:02:36;32.67;;;28.05;;
35745;SDS011;21870;42.812;74.628;2023-03-04T08:05:02;35.78;;;29.85;;
35745;SDS011;21870;42.812;74.628;2023-03-04T08:07:28;43.35;;;32.97;;
35745;SDS011;21870;42.812;74.628;2023-03-04T08:09:54;36.13;;;29.90;;
35745;SDS011;21870;42.812;74.628;2023-03-04T08:12:20;38.03;;;30.27;;
35745;SDS011;21870;42.812;74.628;2023-03-04T08:14:49;42.78;;;30.63;;
35745;SDS011;21870;42.812;74.628;2023-03-04T08:17:15;41.95;;;28.65;;
35745;SDS011;21870;42.812;74.628;2023-03-04T08:19:41;46.05;;;28.73;;
35745;SDS011;21870;42.812;74.628;2023-03-04T08:22:07;38.97;;;28.05;;
35745;SDS011;21870;42.812;74.628;2023-03-04T08:24:33;39.30;;;25.25;;
35745;SDS011;21870;42.812;74.628;2023-03-04T08:26:59;36.22;;;23.75;;
35745;SDS011;21870;42.812;74.628;2023-03-04T08:29:26;31.75;;;22.77;;
35745;SDS011;21870;42.812;74.628;2023-03-04T08:31:52;49.28;;;25.30;;
35745;SDS011;21870;42.812;74.628;2023-03-04T08:34:20;36.97;;;22.08;;
35745;SDS011;21870;42.812;74.628;2023-03-04T08:36:48;33.95;;;22.42;;
35745;SDS011;21870;42.812;74.628;2023-03-04T08:39:15;33.85;;;18.27;;
35745;SDS011;21870;42.812;74.628;2023-03-04T08:41:42;24.27;;;16.60;;
35745;SDS011;21870;42.812;74.628;2023-03-04T08:44:09;25.50;;;15.15;;
35745;SDS011;21870;42.812;74.628;2023-03-04T08:46:39;21.42;;;11.52;;
35745;SDS011;21870;42.812;74.628;2023-03-04T08:49:06;18.70;;;11.75;;
35745;SDS011;21870;42.812;74.628;2023-03-04T08:51:33;23.58;;;11.98;;
35745;SDS011;21870;42.812;74.628;2023-03-04T08:54:00;19.40;;;9.63;;
35745;SDS011;21870;42.812;74.628;2023-03-04T08:56:27;26.95;;;8.95;;
35745;SDS011;21870;42.812;74.628;2023-03-04T08:58:53;18.33;;;7.85;;
35745;SDS011;21870;42.812;74.628;2023-03-04T09:01:19;23.45;;;10.48;;
35745;SDS011;21870;42.812;74.628;2023-03-04T09:03:45;22.08;;;8.02;;
35745;SDS011;21870;42.812;74.628;2023-03-04T09:06:15;15.82;;;7.93;;
35745;SDS011;21870;42.812;74.628;2023-03-04T09:08:42;21.60;;;9.18;;
35745;SDS011;21870;42.812;74.628;2023-03-04T09:11:09;20.38;;;7.68;;
35745;SDS011;21870;42.812;74.628;2023-03-04T09:13:36;16.92;;;8.43;;
35745;SDS011;21870;42.812;74.628;2023-03-04T09:16:02;14.30;;;8.07;;
35745;SDS011;21870;42.812;74.628;2023-03-04T09:18:33;20.50;;;8.43;;
35745;SDS011;21870;42.812;74.628;2023-03-04T09:20:59;19.10;;;9.25;;
35745;SDS011;21870;42.812;74.628;2023-03-04T09:23:25;21.90;;;9.35;;
35745;SDS011;21870;42.812;74.628;2023-03-04T09:25:51;19.90;;;8.73;;
35745;SDS011;21870;42.812;74.628;2023-03-04T09:28:17;29.13;;;10.48;;
35745;SDS011;21870;42.812;74.628;2023-03-04T09:30:44;23.58;;;10.23;;
35745;SDS011;21870;42.812;74.628;2023-03-04T09:33:11;19.65;;;11.32;;
35745;SDS011;21870;42.812;74.628;2023-03-04T09:35:37;29.40;;;11.60;;
35745;SDS011;21870;42.812;74.628;2023-03-04T09:38:03;26.52;;;12.05;;
35745;SDS011;21870;42.812;74.628;2023-03-04T09:40:37;17.55;;;10.27;;
35745;SDS011;21870;42.812;74.628;2023-03-04T09:43:10;18.38;;;11.20;;
35745;SDS011;21870;42.812;74.628;2023-03-04T09:45:58;23.98;;;10.18;;
35745;SDS011;21870;42.812;74.628;2023-03-04T09:48:27;13.48;;;6.72;;
35745;SDS011;21870;42.812;74.628;2023-03-04T09:51:05;12.32;;;7.95;;
35745;SDS011;21870;42.812;74.628;2023-03-04T09:56:25;16.13;;;7.40;;
35745;SDS011;21870;42.812;74.628;2023-03-04T10:02:00;15.30;;;8.07;;
35745;SDS011;21870;42.812;74.628;2023-03-04T10:07:16;19.98;;;9.15;;
35745;SDS011;21870;42.812;74.628;2023-03-04T10:09:47;20.33;;;8.85;;
35745;SDS011;21870;42.812;74.628;2023-03-04T10:12:19;14.65;;;8.40;;
35745;SDS011;21870;42.812;74.628;2023-03-04T10:14:50;19.83;;;8.40;;
35745;SDS011;21870;42.812;74.628;2023-03-04T10:17:55;15.73;;;8.45;;
35745;SDS011;21870;42.812;74.628;2023-03-04T10:20:20;15.77;;;9.02;;
35745;SDS011;21870;42.812;74.628;2023-03-04T10:23:30;21.17;;;9.13;;
35745;SDS011;21870;42.812;74.628;2023-03-04T10:25:43;25.77;;;10.35;;
35745;SDS011;21870;42.812;74.628;2023-03-04T10:28:19;17.98;;;9.82;;
35745;SDS011;21870;42.812;74.628;2023-03-04T10:30:51;19.92;;;10.80;;
35745;SDS011;21870;42.812;74.628;2023-03-04T10:33:25;16.95;;;8.95;;
35745;SDS011;21870;42.812;74.628;2023-03-04T10:38:42;15.65;;;9.23;;
35745;SDS011;21870;42.812;74.628;2023-03-04T10:41:13;17.75;;;9.07;;
35745;SDS011;21870;42.812;74.628;2023-03-04T10:43:59;23.63;;;9.85;;
35745;SDS011;21870;42.812;74.628;2023-03-04T10:46:27;17.02;;;10.13;;
35745;SDS011;21870;42.812;74.628;2023-03-04T10:48:54;19.00;;;9.68;;
35745;SDS011;21870;42.812;74.628;2023-03-04T10:51:21;15.38;;;8.88;;
35745;SDS011;21870;42.812;74.628;2023-03-04T10:54:17;26.42;;;9.02;;
35745;SDS011;21870;42.812;74.628;2023-03-04T10:56:57;20.95;;;8.27;;
35745;SDS011;21870;42.812;74.628;2023-03-04T11:02:05;21.50;;;10.30;;
35745;SDS011;21870;42.812;74.628;2023-03-04T11:04:40;14.65;;;9.98;;
35745;SDS011;21870;42.812;74.628;2023-03-04T11:07:09;29.80;;;9.55;;
35745;SDS011;21870;42.812;74.628;2023-03-04T11:09:36;18.70;;;9.93;;
35745;SDS011;21870;42.812;74.628;2023-03-04T11:12:09;20.80;;;9.93;;
35745;SDS011;21870;42.812;74.628;2023-03-04T11:14:47;20.67;;;11.68;;
35745;SDS011;21870;42.812;74.628;2023-03-04T11:17:16;24.10;;;11.20;;
35745;SDS011;21870;42.812;74.628;2023-03-04T11:22:34;18.10;;;8.32;;
35745;SDS011;21870;42.812;74.628;2023-03-04T11:25:06;20.00;;;10.05;;
35745;SDS011;21870;42.812;74.628;2023-03-04T11:27:43;27.35;;;11.10;;
35745;SDS011;21870;42.812;74.628;2023-03-04T11:30:23;23.63;;;11.07;;
35745;SDS011;21870;42.812;74.628;2023-03-04T11:33:25;22.48;;;9.18;;
35745;SDS011;21870;42.812;74.628;2023-03-04T11:39:32;18.42;;;9.43;;
35745;SDS011;21870;42.812;74.628;2023-03-04T11:44:37;23.27;;;11.43;;
35745;SDS011;21870;42.812;74.628;2023-03-04T11:47:17;24.52;;;14.55;;
35745;SDS011;21870;42.812;74.628;2023-03-04T11:50:03;33.72;;;17.70;;
35745;SDS011;21870;42.812;74.628;2023-03-04T11:52:45;25.42;;;17.40;;
35745;SDS011;21870;42.812;74.628;2023-03-04T11:55:39;36.25;;;16.13;;
35745;SDS011;21870;42.812;74.628;2023-03-04T12:01:09;33.95;;;18.83;;
35745;SDS011;21870;42.812;74.628;2023-03-04T12:14:26;40.63;;;22.95;;
35745;SDS011;21870;42.812;74.628;2023-03-04T12:25:17;31.85;;;20.17;;
35745;SDS011;21870;42.812;74.628;2023-03-04T12:44:53;53.25;;;31.95;;
35745;SDS011;21870;42.812;74.628;2023-03-04T12:50:23;41.88;;;21.13;;
35745;SDS011;21870;42.812;74.628;2023-03-04T12:55:54;31.27;;;14.35;;
35745;SDS011;21870;42.812;74.628;2023-03-04T12:58:29;30.88;;;15.00;;
35745;SDS011;21870;42.812;74.628;2023-03-04T13:09:14;15.40;;;9.27;;
35745;SDS011;21870;42.812;74.628;2023-03-04T13:11:54;16.20;;;10.23;;
35745;SDS011;21870;42.812;74.628;2023-03-04T13:20:19;20.75;;;10.52;;
35745;SDS011;21870;42.812;74.628;2023-03-04T13:22:56;17.25;;;10.93;;
35745;SDS011;21870;42.812;74.628;2023-03-04T13:25:28;15.35;;;10.18;;
35745;SDS011;21870;42.812;74.628;2023-03-04T13:28:05;18.95;;;11.80;;
35745;SDS011;21870;42.812;74.628;2023-03-04T13:38:21;20.42;;;10.68;;
35745;SDS011;21870;42.812;74.628;2023-03-04T13:43:55;32.25;;;16.27;;
35745;SDS011;21870;42.812;74.628;2023-03-04T13:56:41;33.72;;;19.83;;
35745;SDS011;21870;42.812;74.628;2023-03-04T14:01:59;24.83;;;16.42;;
35745;SDS011;21870;42.812;74.628;2023-03-04T14:04:38;28.52;;;18.83;;
35745;SDS011;21870;42.812;74.628;2023-03-04T14:07:25;26.08;;;16.13;;
35745;SDS011;21870;42.812;74.628;2023-03-04T14:09:57;24.17;;;14.50;;
35745;SDS011;21870;42.812;74.628;2023-03-04T14:12:35;30.25;;;12.88;;
35745;SDS011;21870;42.812;74.628;2023-03-04T14:17:43;17.42;;;10.02;;
35745;SDS011;21870;42.812;74.628;2023-03-04T14:22:54;15.95;;;9.57;;
35745;SDS011;21870;42.812;74.628;2023-03-04T14:25:22;19.30;;;10.55;;
35745;SDS011;21870;42.812;74.628;2023-03-04T14:28:28;16.13;;;9.73;;
35745;SDS011;21870;42.812;74.628;2023-03-04T14:30:54;11.20;;;8.95;;
35745;SDS011;21870;42.812;74.628;2023-03-04T14:33:25;12.98;;;10.02;;
35745;SDS011;21870;42.812;74.628;2023-03-04T14:35:57;25.58;;;15.95;;
35745;SDS011;21870;42.812;74.628;2023-03-04T14:38:26;30.35;;;20.02;;
35745;SDS011;21870;42.812;74.628;2023-03-04T14:41:05;38.15;;;21.48;;
35745;SDS011;21870;42.812;74.628;2023-03-04T14:43:34;47.28;;;23.85;;
35745;SDS011;21870;42.812;74.628;2023-03-04T14:46:13;37.78;;;22.40;;
35745;SDS011;21870;42.812;74.628;2023-03-04T14:48:50;34.50;;;19.60;;
35745;SDS011;21870;42.812;74.628;2023-03-04T14:51:27;33.97;;;19.38;;
35745;SDS011;21870;42.812;74.628;2023-03-04T14:53:56;36.42;;;20.25;;
35745;SDS011;21870;42.812;74.628;2023-03-04T14:56:26;38.67;;;24.23;;
35745;SDS011;21870;42.812;74.628;2023-03-04T14:58:54;38.22;;;29.70;;
35745;SDS011;21870;42.812;74.628;2023-03-04T15:01:31;44.08;;;28.10;;
35745;SDS011;21870;42.812;74.628;2023-03-04T15:04:03;47.80;;;29.20;;
35745;SDS011;21870;42.812;74.628;2023-03-04T15:06:33;47.08;;;28.73;;
35745;SDS011;21870;42.812;74.628;2023-03-04T15:11:48;36.05;;;24.88;;
35745;SDS011;21870;42.812;74.628;2023-03-04T15:17:21;35.85;;;23.88;;
35745;SDS011;21870;42.812;74.628;2023-03-04T15:19:59;37.47;;;25.05;;
35745;SDS011;21870;42.812;74.628;2023-03-04T15:22:32;36.70;;;22.15;;
35745;SDS011;21870;42.812;74.628;2023-03-04T15:24:59;30.92;;;22.88;;
35745;SDS011;21870;42.812;74.628;2023-03-04T15:27:25;39.00;;;25.83;;
35745;SDS011;21870;42.812;74.628;2023-03-04T15:29:54;43.25;;;32.67;;
35745;SDS011;21870;42.812;74.628;2023-03-04T15:32:32;31.88;;;21.52;;
35745;SDS011;21870;42.812;74.628;2023-03-04T15:34:58;27.23;;;20.98;;
35745;SDS011;21870;42.812;74.628;2023-03-04T15:37:28;23.48;;;17.90;;
35745;SDS011;21870;42.812;74.628;2023-03-04T15:39:54;26.63;;;17.77;;
35745;SDS011;21870;42.812;74.628;2023-03-04T15:42:21;29.88;;;19.45;;
35745;SDS011;21870;42.812;74.628;2023-03-04T15:44:48;25.05;;;16.70;;
35745;SDS011;21870;42.812;74.628;2023-03-04T15:47:14;28.35;;;18.40;;
35745;SDS011;21870;42.812;74.628;2023-03-04T15:49:41;29.50;;;20.08;;
35745;SDS011;21870;42.812;74.628;2023-03-04T15:52:15;27.30;;;19.05;;
35745;SDS011;21870;42.812;74.628;2023-03-04T15:54:44;43.58;;;21.50;;
35745;SDS011;21870;42.812;74.628;2023-03-04T15:57:15;32.65;;;19.65;;
35745;SDS011;21870;42.812;74.628;2023-03-04T15:59:50;28.27;;;19.33;;
35745;SDS011;21870;42.812;74.628;2023-03-04T16:02:21;31.38;;;18.55;;
35745;SDS011;21870;42.812;74.628;2023-03-04T16:04:49;26.27;;;18.58;;
35745;SDS011;21870;42.812;74.628;2023-03-04T16:07:16;28.48;;;18.38;;
35745;SDS011;21870;42.812;74.628;2023-03-04T16:09:45;24.13;;;16.88;;
35745;SDS011;21870;42.812;74.628;2023-03-04T16:12:13;29.63;;;18.23;;
35745;SDS011;21870;42.812;74.628;2023-03-04T16:14:39;27.83;;;21.15;;
35745;SDS011;21870;42.812;74.628;2023-03-04T16:17:07;27.58;;;20.42;;
35745;SDS011;21870;42.812;74.628;2023-03-04T16:19:33;31.45;;;22.42;;
35745;SDS011;21870;42.812;74.628;2023-03-04T16:22:00;24.88;;;16.67;;